Time;durP1;ratioP1;P1;durP2;ratioP2;P2;SDS_P1;SDS_P2;PMS_P1;PMS_P2;Temp;Humidity;BMP_temperature;BMP_pressure;BME280_temperature;BME280_humidity;BME280_pressure;Samples;Min_cycle;Max_cycle;Signal;HPM_P1;HPM_P2
2022/04/23 00:01:32;;;;;;;0.88;0.88;;;8.40;99.90;;;;;;5229733;28;20035;-80
2022/04/23 00:04:09;;;;;;;1.90;1.80;;;8.40;99.90;;;;;;5226088;28;20041;-76
2022/04/23 00:06:40;;;;;;;2.20;2.10;;;8.40;99.90;;;;;;5201378;28;20044;-82
2022/04/23 00:09:14;;;;;;;1.13;1.13;;;8.40;99.90;;;;;;5229591;28;20056;-79
2022/04/23 00:11:47;;;;;;;1.05;1.05;;;8.50;99.90;;;;;;5211478;28;20564;-79
2022/04/23 00:14:18;;;;;;;0.60;0.60;;;8.40;99.90;;;;;;5217105;28;20059;-78
2022/04/23 00:16:51;;;;;;;1.38;1.38;;;8.40;99.90;;;;;;5213796;28;20407;-79
2022/04/23 00:19:22;;;;;;;1.52;1.52;;;8.50;99.90;;;;;;5231547;28;20314;-80
2022/04/23 00:21:58;;;;;;;1.90;1.80;;;8.40;99.90;;;;;;5227666;28;20037;-80
2022/04/23 00:24:32;;;;;;;1.85;1.75;;;8.50;99.90;;;;;;5211604;28;20029;-81
2022/04/23 00:27:03;;;;;;;1.45;1.42;;;8.40;99.90;;;;;;5211698;28;20024;-79
2022/04/23 00:29:35;;;;;;;2.08;1.98;;;8.40;99.90;;;;;;5229413;28;20016;-80
2022/04/23 00:32:10;;;;;;;0.93;0.93;;;8.50;99.90;;;;;;5211676;28;20051;-80
2022/04/23 00:34:42;;;;;;;1.63;1.55;;;8.50;99.90;;;;;;5225644;28;20037;-79
2022/04/23 00:37:13;;;;;;;0.80;0.80;;;8.50;99.90;;;;;;5211169;28;20017;-80
2022/04/23 00:39:48;;;;;;;0.98;0.98;;;8.50;99.90;;;;;;5219864;28;20315;-77
2022/04/23 00:42:21;;;;;;;1.63;1.52;;;8.50;99.90;;;;;;5210669;28;20053;-78
2022/04/23 00:44:55;;;;;;;1.92;1.88;;;8.60;99.90;;;;;;5228547;28;20033;-77
2022/04/23 00:47:29;;;;;;;1.13;1.13;;;8.60;99.90;;;;;;5234822;28;20025;-80
2022/04/23 00:50:03;;;;;;;1.92;1.85;;;8.60;99.90;;;;;;5217119;28;20027;-79
2022/04/23 00:52:35;;;;;;;1.13;1.13;;;8.60;99.90;;;;;;5228341;28;20034;-81
2022/04/23 00:55:08;;;;;;;1.20;1.20;;;8.60;99.90;;;;;;5220032;28;20052;-81
2022/04/23 00:57:44;;;;;;;1.40;1.38;;;8.60;99.90;;;;;;5253316;28;20028;-80
2022/04/23 01:00:18;;;;;;;1.02;1.02;;;8.60;99.90;;;;;;5253791;28;20404;-80
2022/04/23 01:02:54;;;;;;;1.02;1.02;;;8.60;99.90;;;;;;5252868;28;20032;-80
2022/04/23 01:05:26;;;;;;;1.02;1.02;;;8.60;99.90;;;;;;5228456;28;20053;-80
2022/04/23 01:08:02;;;;;;;1.00;1.00;;;8.50;99.90;;;;;;5213836;28;20037;-78
2022/04/23 01:10:36;;;;;;;2.05;1.95;;;8.60;99.90;;;;;;5240235;28;20026;-79
2022/04/23 01:13:08;;;;;;;1.50;1.50;;;8.60;99.90;;;;;;5252119;28;20013;-79
2022/04/23 01:15:43;;;;;;;2.17;2.08;;;8.60;99.90;;;;;;5252299;28;20028;-79
2022/04/23 01:18:16;;;;;;;1.52;1.52;;;8.60;99.90;;;;;;5251576;28;20025;-80
2022/04/23 01:20:48;;;;;;;1.67;1.58;;;8.60;99.90;;;;;;5251441;28;20031;-79
2022/04/23 01:23:20;;;;;;;1.55;1.52;;;8.60;99.90;;;;;;5217947;28;20224;-79
2022/04/23 01:25:54;;;;;;;1.02;1.02;;;8.60;99.90;;;;;;5233973;28;20043;-77
2022/04/23 01:28:31;;;;;;;;;;;8.60;99.90;;;;;;5250715;28;20021;-80
2022/04/23 01:31:04;;;;;;;1.05;1.05;;;8.60;99.90;;;;;;5223368;28;20217;-80
2022/04/23 01:33:36;;;;;;;2.80;2.63;;;8.50;99.90;;;;;;5246466;28;20021;-78
2022/04/23 01:36:13;;;;;;;1.10;1.10;;;8.50;99.90;;;;;;5214945;28;20068;-77
2022/04/23 01:38:45;;;;;;;2.10;2.00;;;8.50;99.90;;;;;;5230476;28;20067;-80
2022/04/23 01:41:17;;;;;;;2.45;2.35;;;8.50;99.90;;;;;;5232865;28;20028;-79
2022/04/23 01:43:50;;;;;;;1.38;1.38;;;8.40;99.90;;;;;;5234540;28;20037;-80
2022/04/23 01:46:24;;;;;;;1.52;1.52;;;8.50;99.90;;;;;;5231005;28;20017;-80
2022/04/23 01:48:58;;;;;;;2.22;2.13;;;8.50;99.90;;;;;;5229790;28;20034;-79
2022/04/23 01:51:34;;;;;;;2.17;2.08;;;8.50;99.90;;;;;;5235036;28;20044;-80
2022/04/23 01:54:05;;;;;;;1.13;1.13;;;8.40;99.90;;;;;;5223304;28;20031;-78
2022/04/23 01:56:42;;;;;;;1.02;1.02;;;8.50;99.90;;;;;;5251122;28;20035;-78
2022/04/23 01:59:14;;;;;;;1.55;1.48;;;8.40;99.90;;;;;;5250757;28;20088;-76
2022/04/23 02:01:49;;;;;;;2.95;2.85;;;8.40;99.90;;;;;;5250763;28;20029;-78
2022/04/23 02:04:21;;;;;;;2.30;2.20;;;8.40;99.90;;;;;;5227906;28;20028;-80
2022/04/23 02:06:54;;;;;;;2.38;2.28;;;8.40;99.90;;;;;;5242295;28;20024;-80
2022/04/23 02:09:25;;;;;;;3.35;3.15;;;8.50;99.90;;;;;;5265158;28;20027;-80
2022/04/23 02:11:57;;;;;;;0.88;0.88;;;8.40;99.90;;;;;;5241172;28;20031;-80
2022/04/23 02:14:28;;;;;;;3.13;2.95;;;8.50;99.90;;;;;;5260082;28;20024;-78
2022/04/23 02:16:59;;;;;;;1.73;1.63;;;8.50;99.90;;;;;;5227736;28;20029;-79
2022/04/23 02:19:33;;;;;;;1.40;1.40;;;8.50;99.90;;;;;;5262466;28;20020;-78
2022/04/23 02:22:07;;;;;;;2.67;2.58;;;8.50;99.90;;;;;;5246759;28;20037;-79
2022/04/23 02:24:39;;;;;;;2.45;2.35;;;8.50;99.90;;;;;;5255444;28;20024;-77
2022/04/23 02:27:10;;;;;;;1.42;1.42;;;8.50;99.90;;;;;;5253166;28;20038;-82
2022/04/23 02:29:42;;;;;;;2.60;2.40;;;8.50;99.90;;;;;;5233878;28;20034;-78
2022/04/23 02:32:16;;;;;;;2.45;2.30;;;8.50;99.90;;;;;;5252021;28;20039;-77
2022/04/23 02:34:48;;;;;;;2.00;1.90;;;8.50;99.90;;;;;;5251771;28;20063;-78
2022/04/23 02:37:22;;;;;;;2.70;2.47;;;8.50;99.90;;;;;;5264940;28;20036;-79
2022/04/23 02:39:53;;;;;;;3.17;2.97;;;8.50;99.90;;;;;;5222848;28;20032;-79
2022/04/23 02:42:29;;;;;;;1.88;1.83;;;8.60;99.90;;;;;;5234953;28;20038;-79
2022/04/23 02:45:06;;;;;;;2.20;2.10;;;8.50;99.90;;;;;;5240062;28;20035;-81
2022/04/23 02:47:48;;;;;;;1.83;1.75;;;8.50;99.90;;;;;;5260420;28;20008;-80
2022/04/23 02:50:27;;;;;;;3.17;3.00;;;8.50;99.90;;;;;;5242331;28;20044;-78
2022/04/23 02:53:02;;;;;;;3.35;2.20;;;8.50;99.90;;;;;;5259201;28;20020;-80
2022/04/23 02:55:35;;;;;;;2.53;2.35;;;8.50;99.90;;;;;;5252306;28;20020;-77
2022/04/23 02:58:11;;;;;;;2.63;2.53;;;8.50;99.90;;;;;;5234733;28;20028;-77
2022/04/23 03:00:46;;;;;;;3.45;3.15;;;8.50;99.90;;;;;;5251532;28;20345;-80
2022/04/23 03:03:20;;;;;;;1.60;1.60;;;8.50;99.90;;;;;;5251589;28;20035;-81
2022/04/23 03:05:53;;;;;;;3.47;3.22;;;8.50;99.90;;;;;;5223105;28;20050;-80
2022/04/23 03:08:25;;;;;;;3.20;3.03;;;8.50;99.90;;;;;;5229732;28;20031;-80
2022/04/23 03:11:00;;;;;;;2.97;2.85;;;8.50;99.90;;;;;;5230986;28;20035;-80
2022/04/23 03:13:33;;;;;;;2.58;2.42;;;8.50;99.90;;;;;;5234686;28;20047;-79
2022/04/23 03:16:05;;;;;;;4.53;4.27;;;8.50;99.90;;;;;;5235046;28;20024;-80
2022/04/23 03:18:38;;;;;;;2.78;2.65;;;8.50;99.90;;;;;;5233269;28;20025;-80
2022/04/23 03:21:11;;;;;;;1.52;1.50;;;8.40;99.90;;;;;;5216614;28;20037;-80
2022/04/23 03:23:43;;;;;;;1.65;1.65;;;8.40;99.90;;;;;;5251131;28;20024;-80
2022/04/23 03:26:14;;;;;;;2.70;2.60;;;8.40;99.90;;;;;;5232999;28;20058;-80
2022/04/23 03:28:50;;;;;;;1.50;1.45;;;8.40;99.90;;;;;;5199089;28;20033;-79
2022/04/23 03:31:21;;;;;;;1.73;1.67;;;8.30;99.90;;;;;;5230178;28;20021;-78
2022/04/23 03:33:53;;;;;;;2.67;2.58;;;8.30;99.90;;;;;;5244567;28;20033;-79
2022/04/23 03:36:24;;;;;;;2.30;2.20;;;8.30;99.90;;;;;;5245968;28;20024;-79
2022/04/23 03:38:57;;;;;;;3.58;3.25;;;8.30;99.90;;;;;;5212159;28;20043;-78
2022/04/23 03:41:29;;;;;;;3.13;2.40;;;8.30;99.90;;;;;;5212073;28;20037;-80
2022/04/23 03:44:00;;;;;;;1.55;1.55;;;8.30;99.90;;;;;;5229953;28;20021;-79
2022/04/23 03:46:40;;;;;;;1.60;1.55;;;8.30;99.90;;;;;;5240900;28;20023;-78
2022/04/23 03:49:11;;;;;;;1.42;1.42;;;8.20;99.90;;;;;;5227779;28;20035;-79
2022/04/23 03:51:42;;;;;;;2.08;1.98;;;8.20;99.90;;;;;;5244960;28;20092;-77
2022/04/23 03:54:16;;;;;;;3.03;2.83;;;8.10;99.90;;;;;;5232668;28;20039;-79
2022/04/23 03:56:49;;;;;;;;;;;8.20;99.90;;;;;;5229407;28;20013;-80
2022/04/23 03:59:23;;;;;;;1.40;1.40;;;8.10;99.90;;;;;;5196151;28;19912;-80
2022/04/23 04:01:56;;;;;;;1.10;1.10;;;8.10;99.90;;;;;;5229135;28;20021;-80
2022/04/23 04:04:31;;;;;;;1.00;1.00;;;8.10;99.90;;;;;;5218088;28;20428;-78
2022/04/23 04:07:05;;;;;;;1.73;1.65;;;8.20;99.90;;;;;;5248915;28;20025;-78
2022/04/23 04:09:37;;;;;;;1.50;1.50;;;8.20;99.90;;;;;;5232128;28;20021;-77
2022/04/23 04:12:10;;;;;;;3.92;2.78;;;8.20;99.90;;;;;;5238812;28;20038;-79
2022/04/23 04:14:43;;;;;;;2.85;2.75;;;8.10;99.90;;;;;;5232206;28;20050;-78
2022/04/23 04:17:15;;;;;;;3.03;2.83;;;8.10;99.90;;;;;;5251504;28;20034;-80
2022/04/23 04:19:47;;;;;;;3.35;3.13;;;8.10;99.90;;;;;;5253469;28;20849;-77
2022/04/23 04:22:18;;;;;;;1.70;1.65;;;8.10;99.90;;;;;;5255569;28;20068;-79
2022/04/23 04:24:52;;;;;;;1.17;1.17;;;8.10;99.90;;;;;;5236841;28;20067;-78
2022/04/23 04:27:24;;;;;;;1.73;1.65;;;8.10;99.90;;;;;;5239085;28;20020;-79
2022/04/23 04:29:58;;;;;;;1.95;1.85;;;8.10;99.90;;;;;;5253387;28;20027;-78
2022/04/23 04:32:29;;;;;;;1.73;1.63;;;8.10;99.90;;;;;;5212611;28;20033;-80
2022/04/23 04:35:03;;;;;;;2.70;2.60;;;8.00;99.90;;;;;;5224561;28;20276;-79
2022/04/23 04:37:39;;;;;;;2.33;2.22;;;8.10;99.90;;;;;;5273817;28;20040;-79
2022/04/23 04:40:11;;;;;;;2.85;2.75;;;8.10;99.90;;;;;;5274518;28;20034;-80
2022/04/23 04:42:42;;;;;;;1.23;1.23;;;8.10;99.90;;;;;;5251459;28;20042;-80
2022/04/23 04:45:13;;;;;;;2.03;1.92;;;8.10;99.90;;;;;;5256149;28;20032;-80
2022/04/23 04:47:47;;;;;;;3.08;2.97;;;8.10;99.90;;;;;;5275819;28;20466;-78
2022/04/23 04:50:18;;;;;;;3.47;3.30;;;8.10;99.90;;;;;;5273272;28;20218;-78
2022/04/23 04:52:50;;;;;;;2.42;2.33;;;8.10;99.90;;;;;;5273683;28;20022;-77
2022/04/23 04:55:23;;;;;;;1.92;1.83;;;8.20;99.90;;;;;;5256295;28;20034;-80
2022/04/23 04:57:55;;;;;;;2.27;2.17;;;8.20;99.90;;;;;;5256336;28;20229;-78
2022/04/23 05:00:29;;;;;;;2.15;2.05;;;8.20;99.90;;;;;;5260850;28;20023;-80
2022/04/23 05:03:06;;;;;;;2.17;2.10;;;8.20;99.90;;;;;;5253165;28;20452;-79
2022/04/23 05:05:39;;;;;;;2.53;2.42;;;8.20;99.90;;;;;;5239728;28;20060;-79
2022/04/23 05:08:11;;;;;;;2.75;2.60;;;8.20;99.90;;;;;;5234354;28;20032;-78
2022/04/23 05:10:44;;;;;;;1.52;1.52;;;8.30;99.90;;;;;;5234282;28;20032;-78
2022/04/23 05:13:18;;;;;;;3.05;2.95;;;8.30;99.90;;;;;;5251459;28;20017;-78
2022/04/23 05:15:49;;;;;;;3.28;3.08;;;8.30;99.90;;;;;;5233950;28;20039;-79
2022/04/23 05:18:21;;;;;;;2.70;2.60;;;8.30;99.90;;;;;;5251968;28;20188;-80
2022/04/23 05:20:55;;;;;;;2.75;2.65;;;8.30;99.90;;;;;;5251441;28;20020;-78
2022/04/23 05:23:45;;;;;;;2.45;2.35;;;8.40;99.90;;;;;;5233939;28;20034;-78
2022/04/23 05:26:17;;;;;;;0.88;0.88;;;8.40;99.90;;;;;;5233803;28;20025;-75
2022/04/23 05:28:50;;;;;;;2.10;2.00;;;8.40;99.90;;;;;;5231591;28;20031;-78
2022/04/23 05:31:24;;;;;;;3.17;3.05;;;8.40;99.90;;;;;;5214238;28;20028;-78
2022/04/23 05:33:59;;;;;;;6.13;5.35;;;8.50;99.90;;;;;;5241494;28;20501;-77
2022/04/23 05:36:33;;;;;;;1.13;1.13;;;8.50;99.90;;;;;;5209701;28;20036;-78
2022/04/23 05:39:04;;;;;;;1.85;1.83;;;8.60;99.90;;;;;;5241675;28;20275;-77
2022/04/23 05:41:35;;;;;;;2.47;2.38;;;8.60;99.90;;;;;;5233865;28;20040;-79
2022/04/23 05:44:07;;;;;;;1.90;1.85;;;8.60;99.90;;;;;;5233600;28;20032;-79
2022/04/23 05:46:40;;;;;;;2.15;2.05;;;8.60;99.90;;;;;;5231595;28;20024;-81
2022/04/23 05:49:11;;;;;;;1.38;1.38;;;8.60;99.90;;;;;;5249089;28;20035;-77
2022/04/23 05:51:45;;;;;;;1.40;1.40;;;8.50;99.90;;;;;;5229355;28;20469;-79
2022/04/23 05:54:16;;;;;;;2.55;2.45;;;8.50;99.90;;;;;;5233782;28;20024;-80
2022/04/23 05:56:50;;;;;;;2.20;2.10;;;8.50;99.90;;;;;;5231905;28;20029;-79
2022/04/23 05:59:29;;;;;;;2.05;1.98;;;8.40;99.90;;;;;;5229656;28;20039;-79
2022/04/23 06:02:00;;;;;;;3.50;3.30;;;8.50;99.90;;;;;;5247739;28;20036;-80
2022/04/23 06:04:36;;;;;;;2.97;2.88;;;8.50;99.90;;;;;;5224843;28;20071;-77
2022/04/23 06:07:07;;;;;;;1.15;1.13;;;8.50;99.90;;;;;;5250361;28;20035;-78
2022/04/23 06:09:38;;;;;;;2.05;1.95;;;8.50;99.90;;;;;;5231637;28;20021;-80
2022/04/23 06:12:15;;;;;;;2.33;2.22;;;8.50;99.90;;;;;;5227347;28;20040;-78
2022/04/23 06:14:49;;;;;;;1.52;1.52;;;8.60;99.90;;;;;;5232270;28;20029;-79
2022/04/23 06:17:27;;;;;;;1.37;1.37;;;8.60;99.90;;;;;;5247306;28;20017;-78
2022/04/23 06:20:02;;;;;;;1.63;1.52;;;8.70;99.90;;;;;;5211613;28;20032;-78
2022/04/23 06:22:33;;;;;;;;;;;8.70;99.90;;;;;;5250016;28;20483;-77
2022/04/23 06:25:06;;;;;;;1.35;1.35;;;8.80;99.90;;;;;;5230306;28;19901;-78
2022/04/23 06:27:37;;;;;;;1.63;1.55;;;8.70;99.90;;;;;;5251378;28;20050;-79
2022/04/23 06:30:11;;;;;;;2.63;2.42;;;8.70;99.90;;;;;;5251979;28;20028;-75
2022/04/23 06:32:45;;;;;;;2.65;2.55;;;8.60;99.90;;;;;;5234299;28;20036;-77
2022/04/23 06:35:19;;;;;;;2.63;2.53;;;8.60;99.90;;;;;;5235606;28;20031;-79
2022/04/23 06:37:54;;;;;;;2.33;2.22;;;8.60;99.90;;;;;;5219179;28;20034;-80
2022/04/23 06:40:25;;;;;;;4.70;2.70;;;8.80;99.90;;;;;;5234239;28;20351;-80
2022/04/23 06:42:59;;;;;;;0.77;0.77;;;8.70;99.90;;;;;;5257664;28;20040;-82
2022/04/23 06:45:35;;;;;;;3.30;3.10;;;8.80;99.90;;;;;;5226481;28;20025;-81
2022/04/23 06:48:09;;;;;;;1.00;1.00;;;8.90;99.90;;;;;;5241538;28;20025;-80
2022/04/23 06:50:40;;;;;;;1.10;1.07;;;9.00;99.90;;;;;;5231934;28;20036;-80
2022/04/23 06:53:13;;;;;;;1.05;1.05;;;9.10;99.90;;;;;;5258061;28;20351;-79
2022/04/23 06:55:45;;;;;;;1.48;1.48;;;9.40;99.90;;;;;;5258663;28;20030;-79
2022/04/23 06:58:26;;;;;;;2.10;2.00;;;9.50;99.90;;;;;;5219386;28;20043;-78
2022/04/23 07:00:59;;;;;;;1.23;1.23;;;9.40;99.90;;;;;;5225042;28;20030;-79
2022/04/23 07:03:33;;;;;;;1.88;1.77;;;9.60;99.90;;;;;;5232912;28;20039;-78
2022/04/23 07:06:04;;;;;;;1.48;1.48;;;9.70;99.90;;;;;;5239807;28;20571;-78
2022/04/23 07:08:42;;;;;;;1.80;1.70;;;9.60;99.90;;;;;;5232774;28;20025;-78
2022/04/23 07:11:16;;;;;;;1.60;1.50;;;9.70;99.90;;;;;;5251140;28;20398;-78
2022/04/23 07:13:47;;;;;;;1.88;1.77;;;9.60;99.90;;;;;;5232330;28;20529;-78
2022/04/23 07:16:19;;;;;;;2.70;2.60;;;9.60;99.90;;;;;;5266065;28;20028;-79
2022/04/23 07:18:55;;;;;;;2.30;2.20;;;9.30;99.90;;;;;;5270108;28;20016;-79
2022/04/23 07:21:26;;;;;;;1.00;1.00;;;9.10;99.90;;;;;;5262753;28;20038;-77
2022/04/23 07:24:03;;;;;;;2.15;2.05;;;9.10;99.90;;;;;;5232010;28;20032;-78
2022/04/23 07:26:36;;;;;;;1.35;1.33;;;9.10;99.90;;;;;;5228118;28;20593;-78
2022/04/23 07:29:11;;;;;;;1.30;1.30;;;9.40;99.90;;;;;;5229401;28;20013;-77
2022/04/23 07:31:42;;;;;;;1.58;1.58;;;9.60;99.90;;;;;;5234349;28;20026;-77
2022/04/23 07:40:00;;;;;;;3.30;3.10;;;9.80;99.90;;;;;;5249582;28;20022;-79
2022/04/23 07:42:32;;;;;;;2.13;2.03;;;10.00;99.90;;;;;;5223965;28;20029;-77
2022/04/23 07:45:09;;;;;;;2.00;1.90;;;10.10;99.90;;;;;;5246813;28;20038;-80
2022/04/23 07:47:41;;;;;;;1.70;1.63;;;10.30;99.90;;;;;;5245164;28;20017;-80
2022/04/23 07:50:14;;;;;;;1.83;1.73;;;10.40;99.90;;;;;;5232814;28;20039;-77
2022/04/23 07:52:46;;;;;;;2.15;2.05;;;10.50;99.90;;;;;;5243325;28;20029;-80
2022/04/23 07:55:22;;;;;;;1.67;1.60;;;10.60;99.90;;;;;;5223833;28;20024;-80
2022/04/23 07:57:58;;;;;;;1.20;1.20;;;10.80;99.90;;;;;;5240305;28;20020;-81
2022/04/23 08:00:37;;;;;;;2.00;1.90;;;10.80;99.90;;;;;;5239137;28;20025;-82
2022/04/23 08:03:08;;;;;;;2.00;1.88;;;10.80;99.90;;;;;;5230974;28;20028;-82
2022/04/23 08:05:40;;;;;;;1.02;1.02;;;11.00;99.90;;;;;;5221458;28;20060;-81
2022/04/23 08:08:18;;;;;;;1.60;1.50;;;11.20;99.90;;;;;;5250117;28;20031;-79
2022/04/23 08:10:49;;;;;;;3.05;2.35;;;11.40;99.90;;;;;;5247876;28;20024;-77
2022/04/23 08:13:22;;;;;;;1.10;1.10;;;11.50;99.90;;;;;;5248448;28;20020;-80
2022/04/23 08:15:55;;;;;;;3.05;1.65;;;11.50;99.90;;;;;;5232174;28;20022;-78
2022/04/23 08:18:27;;;;;;;1.73;1.73;;;11.80;99.90;;;;;;5232053;28;20036;-80
2022/04/23 08:21:03;;;;;;;1.77;1.73;;;12.00;99.90;;;;;;5246354;28;20017;-78
2022/04/23 08:23:34;;;;;;;1.67;1.67;;;12.00;99.90;;;;;;5245903;28;20054;-78
2022/04/23 08:26:13;;;;;;;2.97;2.70;;;11.90;99.90;;;;;;5249994;28;20024;-79
2022/04/23 08:31:37;;;;;;;2.67;2.53;;;12.50;99.90;;;;;;5250863;28;20039;-80
2022/04/23 08:34:08;;;;;;;1.30;1.30;;;12.80;99.90;;;;;;5237385;28;20036;-79
2022/04/23 08:36:43;;;;;;;3.47;3.28;;;12.70;99.90;;;;;;5232067;28;20043;-80
2022/04/23 08:39:19;;;;;;;2.33;2.13;;;12.90;99.90;;;;;;5223296;28;20038;-77
2022/04/23 08:41:50;;;;;;;2.10;1.92;;;12.50;99.90;;;;;;5221915;28;20045;-79
2022/04/23 08:44:22;;;;;;;2.50;2.30;;;12.40;99.90;;;;;;5235953;28;20016;-80
2022/04/23 08:46:56;;;;;;;1.80;1.70;;;12.40;99.90;;;;;;5241407;28;20013;-79
2022/04/23 08:49:38;;;;;;;1.70;1.63;;;11.90;99.90;;;;;;5230584;28;20074;-81
2022/04/23 08:52:29;;;;;;;1.58;1.48;;;12.50;99.90;;;;;;5241716;28;20035;-78
2022/04/23 08:55:01;;;;;;;3.50;2.78;;;12.70;99.90;;;;;;5209845;28;20031;-81
2022/04/23 08:57:35;;;;;;;2.42;2.33;;;12.90;99.90;;;;;;5237178;28;20021;-79
2022/04/23 09:00:10;;;;;;;2.78;2.58;;;13.50;99.90;;;;;;5238346;28;20582;-78
2022/04/23 09:02:47;;;;;;;1.10;1.10;;;14.10;99.90;;;;;;5221697;28;20032;-79
2022/04/23 09:05:27;;;;;;;1.45;1.45;;;14.50;99.90;;;;;;5227107;28;20057;-80
2022/04/23 09:07:58;;;;;;;2.22;2.13;;;15.00;99.90;;;;;;5244457;28;20040;-80
2022/04/23 09:10:54;;;;;;;3.03;2.92;;;14.90;99.90;;;;;;5237796;28;20028;-80
2022/04/23 09:13:27;;;;;;;1.38;1.38;;;15.10;99.90;;;;;;5240694;28;20024;-78
2022/04/23 09:24:52;;;;;;;2.50;2.40;;;15.40;99.90;;;;;;5251501;28;20026;-77
2022/04/23 09:27:30;;;;;;;2.60;2.40;;;16.10;99.90;;;;;;5233735;28;20025;-79
2022/04/23 09:30:14;;;;;;;2.30;2.20;;;16.70;99.90;;;;;;5216140;28;20036;-81
2022/04/23 09:33:00;;;;;;;2.88;2.67;;;16.30;99.90;;;;;;5248383;28;20095;-82
2022/04/23 09:35:34;;;;;;;1.88;1.77;;;16.20;99.90;;;;;;5229530;28;20029;-80
2022/04/23 09:38:18;;;;;;;2.15;2.05;;;15.60;99.90;;;;;;5237326;28;20028;-75
2022/04/23 09:40:55;;;;;;;2.42;2.33;;;16.40;99.90;;;;;;5239111;28;20021;-78
2022/04/23 09:43:29;;;;;;;3.53;3.33;;;17.10;99.90;;;;;;5226097;28;20485;-76
2022/04/23 09:46:03;;;;;;;1.70;1.63;;;17.30;99.90;;;;;;5226249;28;20038;-77
2022/04/23 09:48:35;;;;;;;2.92;2.72;;;17.50;99.90;;;;;;5234259;28;20059;-78
2022/04/23 09:51:24;;;;;;;1.92;1.83;;;16.30;99.90;;;;;;5214482;28;20364;-78
2022/04/23 09:54:02;;;;;;;2.08;1.98;;;15.00;99.90;;;;;;5224421;28;20032;-81
2022/04/23 09:56:33;;;;;;;2.17;2.08;;;15.00;99.90;;;;;;5227164;28;20039;-78
2022/04/23 09:59:06;;;;;;;2.00;1.90;;;14.80;99.90;;;;;;5230913;28;20026;-81
2022/04/23 10:01:40;;;;;;;2.85;2.70;;;16.10;99.90;;;;;;5212085;28;20042;-79
2022/04/23 10:04:13;;;;;;;1.33;1.33;;;17.40;99.90;;;;;;5227368;28;20039;-78
2022/04/23 10:06:49;;;;;;;1.45;1.45;;;18.10;99.90;;;;;;5251900;28;20036;-75
2022/04/23 10:09:26;;;;;;;3.20;3.00;;;17.30;99.90;;;;;;5270855;28;20322;-76
2022/04/23 10:12:07;;;;;;;1.52;1.52;;;17.20;99.90;;;;;;5254018;28;20040;-81
2022/04/23 10:14:46;;;;;;;2.05;1.95;;;17.20;99.90;;;;;;5254185;28;20031;-74
2022/04/23 10:17:20;;;;;;;2.63;2.53;;;17.60;99.90;;;;;;5253386;28;20016;-80
2022/04/23 10:19:55;;;;;;;1.33;1.33;;;18.30;99.90;;;;;;5250997;28;20534;-79
2022/04/23 10:22:45;;;;;;;1.30;1.30;;;18.50;99.90;;;;;;5251037;28;20028;-76
2022/04/23 10:25:49;;;;;;;1.65;1.55;;;18.60;99.90;;;;;;5228651;28;20045;-78
2022/04/23 10:28:21;;;;;;;2.28;2.17;;;19.90;99.90;;;;;;5219219;28;20025;-76
2022/04/23 10:31:21;;;;;;;2.55;2.42;;;20.50;99.90;;;;;;5232912;28;20037;-77
2022/04/23 10:33:52;;;;;;;1.90;1.80;;;21.00;99.90;;;;;;5251527;28;20017;-78
2022/04/23 10:36:23;;;;;;;3.05;2.85;;;21.90;99.90;;;;;;5233544;28;20034;-76
2022/04/23 10:39:24;;;;;;;1.70;1.60;;;23.00;99.90;;;;;;5232904;28;20561;-77
2022/04/23 10:42:02;;;;;;;1.75;1.67;;;23.50;99.90;;;;;;5256408;28;20012;-77
2022/04/23 10:44:34;;;;;;;2.35;2.25;;;22.60;99.90;;;;;;5236723;28;20028;-77
2022/04/23 10:47:33;;;;;;;2.83;2.58;;;22.60;99.90;;;;;;5258215;28;20024;-76
2022/04/23 10:50:21;;;;;;;1.80;1.70;;;22.10;99.90;;;;;;5250208;28;20027;-78
2022/04/23 10:52:55;;;;;;;2.10;2.00;;;22.30;99.90;;;;;;5250761;28;20028;-79
2022/04/23 10:55:33;;;;;;;2.10;2.00;;;23.10;99.90;;;;;;5266199;28;20028;-77
2022/04/23 10:58:21;;;;;;;2.53;2.42;;;22.80;99.90;;;;;;5232313;28;20040;-77
2022/04/23 11:00:55;;;;;;;3.05;2.85;;;22.00;99.90;;;;;;5247910;28;20021;-77
2022/04/23 11:03:33;;;;;;;2.67;2.58;;;20.70;99.90;;;;;;5251130;28;20225;-77
2022/04/23 11:12:28;;;;;;;2.10;1.95;;;21.40;99.90;;;;;;5214880;28;20036;-75
2022/04/23 11:15:01;;;;;;;0.93;0.93;;;20.80;99.90;;;;;;5241845;28;20020;-77
2022/04/23 11:17:32;;;;;;;1.65;1.58;;;21.30;99.90;;;;;;5233592;28;20024;-79
2022/04/23 11:20:09;;;;;;;2.42;2.30;;;22.20;99.90;;;;;;5213887;28;20383;-77
2022/04/23 11:22:41;;;;;;;1.15;1.15;;;23.00;99.90;;;;;;5255234;28;20036;-81
2022/04/23 11:25:15;;;;;;;1.25;1.25;;;22.80;99.90;;;;;;5252172;28;20012;-82
2022/04/23 11:27:48;;;;;;;2.70;2.60;;;22.10;99.90;;;;;;5280176;28;20024;-78
2022/04/23 11:30:28;;;;;;;2.25;2.15;;;21.00;99.90;;;;;;5272020;28;20032;-76
2022/04/23 11:33:12;;;;;;;2.05;1.95;;;20.90;99.90;;;;;;5261766;28;20027;-75
2022/04/23 11:35:43;;;;;;;2.13;2.03;;;20.70;99.90;;;;;;5258041;28;20024;-73
2022/04/23 11:38:23;;;;;;;2.03;1.92;;;21.30;99.90;;;;;;5253812;28;20032;-78
2022/04/23 11:40:55;;;;;;;2.40;2.20;;;20.90;99.90;;;;;;5233524;28;20040;-73
2022/04/23 11:43:31;;;;;;;1.63;1.58;;;20.80;99.90;;;;;;5231788;28;20036;-77
2022/04/23 11:46:07;;;;;;;3.35;3.15;;;19.20;99.90;;;;;;5232343;28;20032;-77
2022/04/23 11:48:43;;;;;;;3.08;2.88;;;18.90;99.90;;;;;;5254618;28;20023;-75
2022/04/23 11:51:18;;;;;;;3.10;2.90;;;19.10;99.90;;;;;;5249150;28;20032;-75
2022/04/23 11:53:52;;;;;;;2.20;2.10;;;19.20;99.90;;;;;;5249229;28;20225;-74
2022/04/23 11:56:34;;;;;;;1.80;1.70;;;19.10;99.90;;;;;;5248270;28;20046;-77
2022/04/23 11:59:10;;;;;;;2.38;2.17;;;18.90;99.90;;;;;;5231725;28;20032;-76
2022/04/23 12:01:44;;;;;;;3.03;2.72;;;18.10;99.90;;;;;;5251860;28;20038;-76
2022/04/23 12:04:15;;;;;;;3.25;3.03;;;17.30;99.90;;;;;;5244729;28;20031;-78
2022/04/23 12:06:48;;;;;;;1.65;1.65;;;16.80;99.90;;;;;;5225107;28;20033;-77
2022/04/23 12:09:19;;;;;;;1.88;1.52;;;16.50;99.90;;;;;;5249112;28;20025;-79
2022/04/23 12:11:59;;;;;;;1.88;1.80;;;16.20;99.90;;;;;;5214801;28;20044;-78
2022/04/23 12:14:31;;;;;;;2.67;2.58;;;16.20;99.90;;;;;;5249327;28;20028;-77
2022/04/23 12:17:09;;;;;;;1.67;1.67;;;16.10;99.90;;;;;;5214937;28;20024;-79
2022/04/23 12:19:42;;;;;;;2.55;2.30;;;16.10;99.90;;;;;;5249514;28;20021;-78
2022/04/23 12:22:30;;;;;;;3.00;2.80;;;15.90;99.90;;;;;;5250020;28;20040;-78
2022/04/23 12:25:13;;;;;;;2.08;1.98;;;16.10;99.90;;;;;;5247206;28;20026;-80
2022/04/23 12:27:59;;;;;;;4.38;2.67;;;16.40;99.90;;;;;;5261008;28;20187;-80
2022/04/23 12:42:11;;;;;;;2.45;2.35;;;18.30;99.90;;;;;;5259217;28;20012;-76
2022/04/23 12:44:49;;;;;;;4.07;3.78;;;21.30;99.90;;;;;;5251686;28;20024;-76
2022/04/23 12:47:27;;;;;;;3.13;2.92;;;21.40;99.90;;;;;;5254147;28;20026;-75
2022/04/23 12:50:03;;;;;;;1.50;1.40;;;21.80;99.90;;;;;;5253381;28;20029;-77
2022/04/23 12:52:38;;;;;;;3.42;3.13;;;20.60;99.90;;;;;;5254000;28;20024;-73
2022/04/23 12:55:40;;;;;;;3.05;2.95;;;19.30;99.90;;;;;;5236091;28;20071;-80
2022/04/23 12:58:11;;;;;;;2.95;2.75;;;18.90;99.90;;;;;;5236276;28;20024;-75
2022/04/23 13:00:45;;;;;;;1.67;1.65;;;19.40;99.90;;;;;;5219313;28;20451;-76
2022/04/23 13:05:56;;;;;;;3.13;2.92;;;19.40;99.90;;;;;;5242611;28;20057;-76
2022/04/23 13:11:26;;;;;;;1.52;1.50;;;20.10;99.90;;;;;;5252919;28;20020;-77
2022/04/23 13:13:59;;;;;;;1.70;1.70;;;19.10;99.90;;;;;;5253731;28;20022;-77
2022/04/23 13:16:33;;;;;;;1.38;1.35;;;18.50;99.90;;;;;;5254169;28;20027;-76
2022/04/23 13:19:06;;;;;;;2.83;2.63;;;17.60;99.90;;;;;;5218472;28;20043;-78
2022/04/23 13:21:39;;;;;;;2.65;2.47;;;17.20;99.90;;;;;;5230046;28;20024;-75
2022/04/23 13:24:14;;;;;;;2.25;2.15;;;16.60;99.90;;;;;;5253700;28;20036;-82
2022/04/23 13:26:49;;;;;;;2.05;1.95;;;16.50;99.90;;;;;;5254094;28;20318;-75
2022/04/23 13:29:22;;;;;;;1.98;1.88;;;16.40;99.90;;;;;;5237026;28;20020;-79
2022/04/23 13:31:55;;;;;;;10.38;1.75;;;16.60;99.90;;;;;;5235796;28;20026;-79
2022/04/23 13:34:29;;;;;;;3.33;3.13;;;16.70;99.90;;;;;;5235456;28;20036;-76
2022/04/23 13:37:02;;;;;;;2.05;1.95;;;16.80;99.90;;;;;;5219205;28;20027;-77
2022/04/23 13:39:35;;;;;;;2.53;2.25;;;17.20;99.90;;;;;;5234935;28;20494;-79
2022/04/23 13:42:07;;;;;;;4.25;3.90;;;16.80;99.90;;;;;;5235435;28;20029;-78
2022/04/23 13:44:42;;;;;;;2.58;2.45;;;16.30;99.90;;;;;;5256533;28;20027;-78
2022/04/23 13:47:13;;;;;;;1.45;1.45;;;15.80;99.90;;;;;;5261538;28;20012;-82
2022/04/23 13:49:48;;;;;;;2.08;1.98;;;15.70;99.90;;;;;;5262197;28;20035;-82
2022/04/23 13:52:24;;;;;;;2.50;2.35;;;15.60;99.90;;;;;;5258348;28;20032;-81
2022/04/23 13:54:55;;;;;;;2.95;2.75;;;15.40;99.90;;;;;;5256960;28;20024;-80
2022/04/23 13:57:27;;;;;;;3.47;2.40;;;15.30;99.90;;;;;;5240299;28;20044;-77
2022/04/23 14:00:04;;;;;;;2.13;2.03;;;15.20;99.90;;;;;;5255163;28;20012;-82
2022/04/23 14:11:10;;;;;;;1.25;1.25;;;15.40;99.90;;;;;;5248407;28;20028;-78
2022/04/23 14:13:47;;;;;;;4.85;4.50;;;14.90;99.90;;;;;;5230965;28;20529;-79
2022/04/23 14:16:18;;;;;;;1.00;1.00;;;15.10;99.90;;;;;;5249082;28;20035;-81
2022/04/23 14:18:51;;;;;;;1.45;1.45;;;15.10;99.90;;;;;;5231089;28;20038;-76
2022/04/23 14:21:23;;;;;;;1.55;1.52;;;15.00;99.90;;;;;;5217124;28;20036;-78